sensor_id;sensor_type;location;lat;lon;timestamp;pressure;altitude;pressure_sealevel;temperature;humidity
17254;BME280;32542;52.832;13.816;2023-12-20T00:00:31;100765.91;;;21.32;48.91
17254;BME280;32542;52.832;13.816;2023-12-20T00:03:35;100763.31;;;21.30;49.03
17254;BME280;32542;52.832;13.816;2023-12-20T00:06:43;100769.66;;;21.28;49.08
17254;BME280;32542;52.832;13.816;2023-12-20T00:09:47;100757.44;;;21.24;49.06
17254;BME280;32542;52.832;13.816;2023-12-20T00:12:50;100761.06;;;21.23;49.16
17254;BME280;32542;52.832;13.816;2023-12-20T00:15:53;100754.00;;;21.22;49.15
17254;BME280;32542;52.832;13.816;2023-12-20T00:18:56;100751.41;;;21.20;49.20
17254;BME280;32542;52.832;13.816;2023-12-20T00:21:59;100751.41;;;21.20;49.22
17254;BME280;32542;52.832;13.816;2023-12-20T00:25:04;100761.19;;;21.20;49.40
17254;BME280;32542;52.832;13.816;2023-12-20T00:28:07;100756.88;;;21.17;49.21
17254;BME280;32542;52.832;13.816;2023-12-20T00:31:10;100755.09;;;21.18;49.24
17254;BME280;32542;52.832;13.816;2023-12-20T00:34:13;100740.91;;;21.17;49.23
17254;BME280;32542;52.832;13.816;2023-12-20T00:37:16;100740.03;;;21.17;49.23
17254;BME280;32542;52.832;13.816;2023-12-20T00:40:21;100736.59;;;21.15;49.34
17254;BME280;32542;52.832;13.816;2023-12-20T00:43:24;100739.56;;;21.09;49.50
17254;BME280;32542;52.832;13.816;2023-12-20T00:46:27;100737.06;;;21.06;49.53
17254;BME280;32542;52.832;13.816;2023-12-20T00:49:29;100742.38;;;21.06;49.54
17254;BME280;32542;52.832;13.816;2023-12-20T00:52:32;100732.84;;;21.00;49.60
17254;BME280;32542;52.832;13.816;2023-12-20T00:55:37;100745.38;;;20.98;49.62
17254;BME280;32542;52.832;13.816;2023-12-20T00:58:39;100745.47;;;20.96;49.70
17254;BME280;32542;52.832;13.816;2023-12-20T01:01:42;100734.91;;;20.95;49.78
17254;BME280;32542;52.832;13.816;2023-12-20T01:04:45;100740.28;;;20.93;49.82
17254;BME280;32542;52.832;13.816;2023-12-20T01:07:48;100748.13;;;20.96;49.76
17254;BME280;32542;52.832;13.816;2023-12-20T01:10:53;100749.00;;;20.97;49.69
17254;BME280;32542;52.832;13.816;2023-12-20T01:13:55;100745.28;;;20.99;49.73
17254;BME280;32542;52.832;13.816;2023-12-20T01:16:58;100750.69;;;20.98;49.65
17254;BME280;32542;52.832;13.816;2023-12-20T01:20:02;100748.13;;;20.96;49.63
17254;BME280;32542;52.832;13.816;2023-12-20T01:23:05;100766.84;;;20.95;49.71
17254;BME280;32542;52.832;13.816;2023-12-20T01:26:09;100756.31;;;20.92;49.72
17254;BME280;32542;52.832;13.816;2023-12-20T01:29:12;100743.94;;;20.91;49.72
17254;BME280;32542;52.832;13.816;2023-12-20T01:32:15;100735.13;;;20.90;49.81
17254;BME280;32542;52.832;13.816;2023-12-20T01:35:18;100730.72;;;20.89;49.77
17254;BME280;32542;52.832;13.816;2023-12-20T01:38:21;100731.59;;;20.90;49.79
17254;BME280;32542;52.832;13.816;2023-12-20T01:41:25;100725.31;;;20.91;49.78
17254;BME280;32542;52.832;13.816;2023-12-20T01:44:28;100723.69;;;20.88;49.87
17254;BME280;32542;52.832;13.816;2023-12-20T01:47:31;100726.41;;;20.87;49.90
17254;BME280;32542;52.832;13.816;2023-12-20T01:50:36;100730.72;;;20.89;49.86
17254;BME280;32542;52.832;13.816;2023-12-20T01:53:39;100725.09;;;20.95;49.64
17254;BME280;32542;52.832;13.816;2023-12-20T01:56:45;100728.69;;;20.94;49.58
17254;BME280;32542;52.832;13.816;2023-12-20T01:59:48;100733.25;;;20.92;49.58
17254;BME280;32542;52.832;13.816;2023-12-20T02:02:52;100728.06;;;20.89;49.67
17254;BME280;32542;52.832;13.816;2023-12-20T02:05:56;100736.22;;;20.86;49.64
17254;BME280;32542;52.832;13.816;2023-12-20T02:08:59;100747.69;;;20.87;49.82
17254;BME280;32542;52.832;13.816;2023-12-20T02:12:04;100741.53;;;20.86;49.75
17254;BME280;32542;52.832;13.816;2023-12-20T02:15:08;100747.78;;;20.85;49.86
17254;BME280;32542;52.832;13.816;2023-12-20T02:18:11;100739.78;;;20.85;49.87
17254;BME280;32542;52.832;13.816;2023-12-20T02:21:17;100730.88;;;20.86;49.75
17254;BME280;32542;52.832;13.816;2023-12-20T02:24:21;100733.59;;;20.85;49.83
17254;BME280;32542;52.832;13.816;2023-12-20T02:27:24;100732.75;;;20.84;49.75
17254;BME280;32542;52.832;13.816;2023-12-20T02:30:27;100740.66;;;20.86;49.83
17254;BME280;32542;52.832;13.816;2023-12-20T02:33:30;100745.03;;;20.87;49.79
17254;BME280;32542;52.832;13.816;2023-12-20T02:36:32;100752.19;;;20.86;49.75
17254;BME280;32542;52.832;13.816;2023-12-20T02:39:37;100741.53;;;20.86;49.72
17254;BME280;32542;52.832;13.816;2023-12-20T02:42:39;100751.38;;;20.84;49.85
17254;BME280;32542;52.832;13.816;2023-12-20T02:45:42;100745.13;;;20.85;49.82
17254;BME280;32542;52.832;13.816;2023-12-20T02:48:45;100744.25;;;20.85;49.76
17254;BME280;32542;52.832;13.816;2023-12-20T02:51:49;100735.41;;;20.84;49.80
17254;BME280;32542;52.832;13.816;2023-12-20T02:54:53;100745.13;;;20.85;49.91
17254;BME280;32542;52.832;13.816;2023-12-20T02:57:56;100738.09;;;20.84;49.79
17254;BME280;32542;52.832;13.816;2023-12-20T03:00:59;100746.06;;;20.84;49.79
17254;BME280;32542;52.832;13.816;2023-12-20T03:04:02;100758.50;;;20.84;49.81
17254;BME280;32542;52.832;13.816;2023-12-20T03:07:05;100752.19;;;20.86;49.82
17254;BME280;32542;52.832;13.816;2023-12-20T03:10:10;100742.00;;;20.94;49.87
17254;BME280;32542;52.832;13.816;2023-12-20T03:13:24;100744.50;;;20.97;49.42
17254;BME280;32542;52.832;13.816;2023-12-20T03:16:27;100732.16;;;20.96;49.47
17254;BME280;32542;52.832;13.816;2023-12-20T03:19:30;100734.16;;;20.91;49.57
17254;BME280;32542;52.832;13.816;2023-12-20T03:22:33;100726.25;;;20.90;49.66
17254;BME280;32542;52.832;13.816;2023-12-20T03:25:37;100733.38;;;20.89;49.59
17254;BME280;32542;52.832;13.816;2023-12-20T03:28:40;100726.34;;;20.88;49.75
17254;BME280;32542;52.832;13.816;2023-12-20T03:31:43;100727.13;;;20.90;49.59
17254;BME280;32542;52.832;13.816;2023-12-20T03:34:45;100729.78;;;20.90;49.60
17254;BME280;32542;52.832;13.816;2023-12-20T03:37:50;100742.09;;;20.93;49.51
17254;BME280;32542;52.832;13.816;2023-12-20T03:40:54;100731.38;;;20.94;49.38
17254;BME280;32542;52.832;13.816;2023-12-20T03:43:57;100723.22;;;20.97;49.46
17254;BME280;32542;52.832;13.816;2023-12-20T03:46:59;100721.34;;;20.99;49.16
17254;BME280;32542;52.832;13.816;2023-12-20T03:50:03;100732.75;;;21.03;49.15
17254;BME280;32542;52.832;13.816;2023-12-20T03:53:06;100730.88;;;21.05;49.09
17254;BME280;32542;52.832;13.816;2023-12-20T03:56:10;100723.66;;;21.07;48.93
17254;BME280;32542;52.832;13.816;2023-12-20T03:59:13;100721.78;;;21.09;48.87
17254;BME280;32542;52.832;13.816;2023-12-20T04:02:16;100714.66;;;21.10;48.88
17254;BME280;32542;52.832;13.816;2023-12-20T04:05:20;100717.34;;;21.10;48.91
17254;BME280;32542;52.832;13.816;2023-12-20T04:08:23;100721.69;;;21.11;48.83
17254;BME280;32542;52.832;13.816;2023-12-20T04:11:27;100719.91;;;21.11;48.80
17254;BME280;32542;52.832;13.816;2023-12-20T04:14:30;100705.66;;;21.12;48.81
17254;BME280;32542;52.832;13.816;2023-12-20T04:17:32;100708.34;;;21.12;48.65
17254;BME280;32542;52.832;13.816;2023-12-20T04:20:36;100710.91;;;21.14;48.65
17254;BME280;32542;52.832;13.816;2023-12-20T04:23:38;100703.78;;;21.14;48.62
17254;BME280;32542;52.832;13.816;2023-12-20T04:26:43;100704.63;;;21.15;48.74
17254;BME280;32542;52.832;13.816;2023-12-20T04:29:46;100695.72;;;21.16;48.60
17254;BME280;32542;52.832;13.816;2023-12-20T04:32:49;100690.41;;;21.16;48.67
17254;BME280;32542;52.832;13.816;2023-12-20T04:35:52;100685.94;;;21.16;48.63
17254;BME280;32542;52.832;13.816;2023-12-20T04:38:54;100684.09;;;21.17;48.67
17254;BME280;32542;52.832;13.816;2023-12-20T04:41:59;100692.09;;;21.17;48.63
17254;BME280;32542;52.832;13.816;2023-12-20T04:45:01;100697.44;;;21.17;48.57
17254;BME280;32542;52.832;13.816;2023-12-20T04:48:05;100695.72;;;21.16;48.70
17254;BME280;32542;52.832;13.816;2023-12-20T04:51:08;100685.06;;;21.16;48.54
17254;BME280;32542;52.832;13.816;2023-12-20T04:54:11;100693.06;;;21.16;48.67
17254;BME280;32542;52.832;13.816;2023-12-20T04:57:16;100692.19;;;21.15;48.67
17254;BME280;32542;52.832;13.816;2023-12-20T05:00:19;100693.97;;;21.15;48.62
17254;BME280;32542;52.832;13.816;2023-12-20T05:03:22;100704.63;;;21.15;48.66
17254;BME280;32542;52.832;13.816;2023-12-20T05:06:25;100691.31;;;21.15;48.58
17254;BME280;32542;52.832;13.816;2023-12-20T05:09:28;100685.06;;;21.16;48.62
17254;BME280;32542;52.832;13.816;2023-12-20T05:12:32;100684.19;;;21.15;48.55
17254;BME280;32542;52.832;13.816;2023-12-20T05:15:35;100698.38;;;21.16;48.56
17254;BME280;32542;52.832;13.816;2023-12-20T05:18:38;100694.84;;;21.15;48.62
17254;BME280;32542;52.832;13.816;2023-12-20T05:21:40;100694.84;;;21.15;48.60
17254;BME280;32542;52.832;13.816;2023-12-20T05:24:43;100697.50;;;21.15;48.52
17254;BME280;32542;52.832;13.816;2023-12-20T05:27:48;100687.81;;;21.14;48.56
17254;BME280;32542;52.832;13.816;2023-12-20T05:30:51;100688.66;;;21.15;48.58
17254;BME280;32542;52.832;13.816;2023-12-20T05:33:54;100679.88;;;21.13;48.63
17254;BME280;32542;52.832;13.816;2023-12-20T05:36:57;100670.97;;;21.14;48.57
17254;BME280;32542;52.832;13.816;2023-12-20T05:40:00;100668.31;;;21.14;48.58
17254;BME280;32542;52.832;13.816;2023-12-20T05:43:04;100671.84;;;21.14;48.76
17254;BME280;32542;52.832;13.816;2023-12-20T05:46:10;100661.19;;;21.14;48.53
17254;BME280;32542;52.832;13.816;2023-12-20T05:49:13;100680.66;;;21.15;48.67
17254;BME280;32542;52.832;13.816;2023-12-20T05:52:16;100672.69;;;21.15;48.60
17254;BME280;32542;52.832;13.816;2023-12-20T05:55:19;100670.88;;;21.15;48.65
17254;BME280;32542;52.832;13.816;2023-12-20T05:58:23;100672.69;;;21.15;48.57
17254;BME280;32542;52.832;13.816;2023-12-20T06:01:26;100666.44;;;21.16;48.47
17254;BME280;32542;52.832;13.816;2023-12-20T06:04:29;100664.69;;;21.15;48.56
17254;BME280;32542;52.832;13.816;2023-12-20T06:07:32;100648.72;;;21.15;48.65
17254;BME280;32542;52.832;13.816;2023-12-20T06:10:35;100638.06;;;21.15;48.56
17254;BME280;32542;52.832;13.816;2023-12-20T06:13:39;100645.22;;;21.14;48.60
17254;BME280;32542;52.832;13.816;2023-12-20T06:16:42;100632.81;;;21.13;48.63
17254;BME280;32542;52.832;13.816;2023-12-20T06:19:45;100639.00;;;21.14;48.55
17254;BME280;32542;52.832;13.816;2023-12-20T06:22:50;100632.81;;;21.13;48.59
17254;BME280;32542;52.832;13.816;2023-12-20T06:25:52;100636.34;;;21.14;48.65
17254;BME280;32542;52.832;13.816;2023-12-20T06:28:57;100640.72;;;21.15;48.54
17254;BME280;32542;52.832;13.816;2023-12-20T06:31:59;100644.34;;;21.14;48.50
17254;BME280;32542;52.832;13.816;2023-12-20T06:35:03;100641.69;;;21.14;48.63
17254;BME280;32542;52.832;13.816;2023-12-20T06:38:06;100643.38;;;21.15;48.61
17254;BME280;32542;52.832;13.816;2023-12-20T06:41:13;100639.00;;;21.14;48.57
17254;BME280;32542;52.832;13.816;2023-12-20T06:44:17;100639.00;;;21.14;48.63
17254;BME280;32542;52.832;13.816;2023-12-20T06:47:20;100639.94;;;21.13;48.62
17254;BME280;32542;52.832;13.816;2023-12-20T06:50:22;100625.78;;;21.12;48.65
17254;BME280;32542;52.832;13.816;2023-12-20T06:53:25;100627.59;;;21.12;48.61
17254;BME280;32542;52.832;13.816;2023-12-20T06:56:28;100631.94;;;21.13;48.61
17254;BME280;32542;52.832;13.816;2023-12-20T06:59:32;100628.38;;;21.14;48.54
17254;BME280;32542;52.832;13.816;2023-12-20T07:02:35;100632.81;;;21.13;48.47
17254;BME280;32542;52.832;13.816;2023-12-20T07:05:38;100634.56;;;21.14;48.51
17254;BME280;32542;52.832;13.816;2023-12-20T07:08:42;100640.72;;;21.15;48.61
17254;BME280;32542;52.832;13.816;2023-12-20T07:11:45;100630.06;;;21.15;48.58
17254;BME280;32542;52.832;13.816;2023-12-20T07:14:49;100627.34;;;21.16;48.50
17254;BME280;32542;52.832;13.816;2023-12-20T07:17:52;100635.41;;;21.15;48.54
17254;BME280;32542;52.832;13.816;2023-12-20T07:20:55;100633.59;;;21.15;48.56
17254;BME280;32542;52.832;13.816;2023-12-20T07:23:57;100629.16;;;21.16;48.57
17254;BME280;32542;52.832;13.816;2023-12-20T07:27:00;100630.94;;;21.15;48.63
17254;BME280;32542;52.832;13.816;2023-12-20T07:30:06;100619.41;;;21.15;48.58
17254;BME280;32542;52.832;13.816;2023-12-20T07:33:09;100629.16;;;21.16;48.53
17254;BME280;32542;52.832;13.816;2023-12-20T07:36:14;100619.41;;;21.15;48.56
17254;BME280;32542;52.832;13.816;2023-12-20T07:39:17;100621.25;;;21.14;48.63
17254;BME280;32542;52.832;13.816;2023-12-20T07:42:20;100620.28;;;21.15;48.54
17254;BME280;32542;52.832;13.816;2023-12-20T07:45:24;100624.69;;;21.16;48.47
17254;BME280;32542;52.832;13.816;2023-12-20T07:48:27;100624.69;;;21.16;48.56
17254;BME280;32542;52.832;13.816;2023-12-20T07:51:30;100628.19;;;21.17;48.52
17254;BME280;32542;52.832;13.816;2023-12-20T07:54:33;100622.03;;;21.16;48.59
17254;BME280;32542;52.832;13.816;2023-12-20T07:57:36;100628.19;;;21.17;48.56
17254;BME280;32542;52.832;13.816;2023-12-20T08:00:40;100616.69;;;21.16;48.51
17254;BME280;32542;52.832;13.816;2023-12-20T08:03:43;100615.84;;;21.16;48.43
17254;BME280;32542;52.832;13.816;2023-12-20T08:06:46;100628.19;;;21.17;48.61
17254;BME280;32542;52.832;13.816;2023-12-20T08:09:49;100621.16;;;21.16;48.55
17254;BME280;32542;52.832;13.816;2023-12-20T08:12:53;100624.75;;;21.15;48.45
17254;BME280;32542;52.832;13.816;2023-12-20T08:15:57;100630.06;;;21.15;48.60
17254;BME280;32542;52.832;13.816;2023-12-20T08:19:02;100619.41;;;21.15;48.54
17254;BME280;32542;52.832;13.816;2023-12-20T08:22:05;100618.50;;;21.16;48.59
17254;BME280;32542;52.832;13.816;2023-12-20T08:25:08;100622.97;;;21.15;48.59
17254;BME280;32542;52.832;13.816;2023-12-20T08:28:11;100608.78;;;21.15;48.60
17254;BME280;32542;52.832;13.816;2023-12-20T08:31:16;100615.84;;;21.16;48.57
17254;BME280;32542;52.832;13.816;2023-12-20T08:34:19;100612.31;;;21.15;48.51
17254;BME280;32542;52.832;13.816;2023-12-20T08:37:22;100619.38;;;21.16;48.42
17254;BME280;32542;52.832;13.816;2023-12-20T08:40:25;100605.19;;;21.16;48.55
17254;BME280;32542;52.832;13.816;2023-12-20T08:43:28;100605.19;;;21.16;48.70
17254;BME280;32542;52.832;13.816;2023-12-20T08:46:32;100597.97;;;21.18;48.70
17254;BME280;32542;52.832;13.816;2023-12-20T08:49:35;100590.91;;;21.17;48.73
17254;BME280;32542;52.832;13.816;2023-12-20T08:52:38;100592.66;;;21.18;48.82
17254;BME280;32542;52.832;13.816;2023-12-20T08:55:41;100574.94;;;21.17;48.72
17254;BME280;32542;52.832;13.816;2023-12-20T08:58:44;100588.25;;;21.17;48.67
17254;BME280;32542;52.832;13.816;2023-12-20T09:01:49;100576.66;;;21.18;48.59
17254;BME280;32542;52.832;13.816;2023-12-20T09:04:56;100592.66;;;21.18;48.71
17254;BME280;32542;52.832;13.816;2023-12-20T09:07:59;100592.66;;;21.18;48.68
17254;BME280;32542;52.832;13.816;2023-12-20T09:11:02;100591.69;;;21.19;48.70
17254;BME280;32542;52.832;13.816;2023-12-20T09:14:05;100592.66;;;21.18;48.63
17254;BME280;32542;52.832;13.816;2023-12-20T09:17:10;100591.69;;;21.19;48.83
17254;BME280;32542;52.832;13.816;2023-12-20T09:20:13;100573.06;;;21.19;48.81
17254;BME280;32542;52.832;13.816;2023-12-20T09:23:16;100568.59;;;21.19;49.00
17254;BME280;32542;52.832;13.816;2023-12-20T09:26:19;100568.59;;;21.19;49.09
17254;BME280;32542;52.832;13.816;2023-12-20T09:29:22;100569.47;;;21.20;49.17
17254;BME280;32542;52.832;13.816;2023-12-20T09:32:27;100565.84;;;21.21;49.08
17254;BME280;32542;52.832;13.816;2023-12-20T09:35:31;100557.84;;;21.21;49.14
17254;BME280;32542;52.832;13.816;2023-12-20T09:38:34;100561.38;;;21.21;49.07
17254;BME280;32542;52.832;13.816;2023-12-20T09:41:42;100554.16;;;21.23;49.16
17254;BME280;32542;52.832;13.816;2023-12-20T09:44:47;100557.69;;;21.24;49.09
17254;BME280;32542;52.832;13.816;2023-12-20T09:47:52;100565.53;;;21.27;49.12
17254;BME280;32542;52.832;13.816;2023-12-20T09:50:55;100566.38;;;21.27;49.04
17254;BME280;32542;52.832;13.816;2023-12-20T09:53:59;100553.94;;;21.28;48.93
17254;BME280;32542;52.832;13.816;2023-12-20T09:57:04;100555.72;;;21.27;48.84
17254;BME280;32542;52.832;13.816;2023-12-20T10:00:08;100554.41;;;21.19;46.50
17254;BME280;32542;52.832;13.816;2023-12-20T10:03:15;100552.69;;;21.00;43.92
17254;BME280;32542;52.832;13.816;2023-12-20T10:06:18;100547.25;;;20.86;43.63
17254;BME280;32542;52.832;13.816;2023-12-20T10:09:21;100536.09;;;20.78;44.29
17254;BME280;32542;52.832;13.816;2023-12-20T10:12:24;100525.47;;;20.78;44.91
17254;BME280;32542;52.832;13.816;2023-12-20T10:15:27;100521.72;;;20.82;44.95
17254;BME280;32542;52.832;13.816;2023-12-20T10:18:32;100522.41;;;20.86;45.22
17254;BME280;32542;52.832;13.816;2023-12-20T10:21:41;100503.38;;;20.93;45.46
17254;BME280;32542;52.832;13.816;2023-12-20T10:24:45;100501.34;;;20.98;45.48
17254;BME280;32542;52.832;13.816;2023-12-20T10:27:49;100501.91;;;21.05;45.69
17254;BME280;32542;52.832;13.816;2023-12-20T10:30:54;100488.34;;;21.10;45.91
17254;BME280;32542;52.832;13.816;2023-12-20T10:34:00;100493.44;;;21.14;45.85
17254;BME280;32542;52.832;13.816;2023-12-20T10:37:03;100480.91;;;21.16;45.92
17254;BME280;32542;52.832;13.816;2023-12-20T10:40:08;100482.47;;;21.20;46.18
17254;BME280;32542;52.832;13.816;2023-12-20T10:43:11;100475.25;;;21.22;46.06
17254;BME280;32542;52.832;13.816;2023-12-20T10:46:15;100466.28;;;21.23;46.26
17254;BME280;32542;52.832;13.816;2023-12-20T10:49:20;100464.34;;;21.27;46.42
17254;BME280;32542;52.832;13.816;2023-12-20T10:52:23;100461.59;;;21.28;46.42
17254;BME280;32542;52.832;13.816;2023-12-20T10:55:27;100448.19;;;21.30;46.56
17254;BME280;32542;52.832;13.816;2023-12-20T10:58:32;100459.59;;;21.32;46.62
17254;BME280;32542;52.832;13.816;2023-12-20T11:01:38;100451.56;;;21.33;46.59
17254;BME280;32542;52.832;13.816;2023-12-20T11:04:50;100451.63;;;21.32;46.72
17254;BME280;32542;52.832;13.816;2023-12-20T11:08:00;100437.38;;;21.33;46.84
17254;BME280;32542;52.832;13.816;2023-12-20T11:11:10;100437.38;;;21.33;47.05
17254;BME280;32542;52.832;13.816;2023-12-20T11:14:19;100417.84;;;21.32;46.95
17254;BME280;32542;52.832;13.816;2023-12-20T11:17:24;100419.66;;;21.32;47.04
17254;BME280;32542;52.832;13.816;2023-12-20T11:20:37;100407.28;;;21.31;47.18
17254;BME280;32542;52.832;13.816;2023-12-20T11:23:42;100393.22;;;21.29;47.22
17254;BME280;32542;52.832;13.816;2023-12-20T11:26:47;100388.72;;;21.29;47.35
17254;BME280;32542;52.832;13.816;2023-12-20T11:29:52;100380.72;;;21.29;47.44
17254;BME280;32542;52.832;13.816;2023-12-20T11:32:55;100372.75;;;21.29;47.37
17254;BME280;32542;52.832;13.816;2023-12-20T11:36:00;100373.59;;;21.30;47.52
17254;BME280;32542;52.832;13.816;2023-12-20T11:39:04;100354.09;;;21.29;47.59
17254;BME280;32542;52.832;13.816;2023-12-20T11:42:15;100348.72;;;21.31;47.56
17254;BME280;32542;52.832;13.816;2023-12-20T11:45:19;100339.75;;;21.32;47.61
17254;BME280;32542;52.832;13.816;2023-12-20T11:48:23;100337.84;;;21.34;47.66
17254;BME280;32542;52.832;13.816;2023-12-20T11:51:28;100325.50;;;21.33;47.79
17254;BME280;32542;52.832;13.816;2023-12-20T11:54:30;100327.22;;;21.34;47.82
17254;BME280;32542;52.832;13.816;2023-12-20T11:57:34;100313.91;;;21.34;47.84
17254;BME280;32542;52.832;13.816;2023-12-20T12:00:36;100311.31;;;21.32;48.05
17254;BME280;32542;52.832;13.816;2023-12-20T12:03:39;100300.69;;;21.32;48.07
17254;BME280;32542;52.832;13.816;2023-12-20T12:06:45;100288.22;;;21.33;48.04
17254;BME280;32542;52.832;13.816;2023-12-20T12:09:49;100293.56;;;21.33;48.17
17254;BME280;32542;52.832;13.816;2023-12-20T12:12:52;100285.56;;;21.33;48.11
17254;BME280;32542;52.832;13.816;2023-12-20T12:15:55;100283.81;;;21.32;48.11
17254;BME280;32542;52.832;13.816;2023-12-20T12:18:58;100266.06;;;21.32;48.19
17254;BME280;32542;52.832;13.816;2023-12-20T12:22:07;100251.88;;;21.32;48.29
17254;BME280;32542;52.832;13.816;2023-12-20T12:25:16;100247.41;;;21.32;48.70
17254;BME280;32542;52.832;13.816;2023-12-20T12:28:19;100242.09;;;21.32;48.67
17254;BME280;32542;52.832;13.816;2023-12-20T12:31:23;100242.94;;;21.33;48.70
17254;BME280;32542;52.832;13.816;2023-12-20T12:34:29;100246.47;;;21.33;48.88
17254;BME280;32542;52.832;13.816;2023-12-20T12:37:37;100245.63;;;21.33;49.00
17254;BME280;32542;52.832;13.816;2023-12-20T12:40:43;100242.09;;;21.32;49.14
17254;BME280;32542;52.832;13.816;2023-12-20T12:43:46;100246.53;;;21.32;49.34
17254;BME280;32542;52.832;13.816;2023-12-20T12:46:49;100243.88;;;21.32;49.29
17254;BME280;32542;52.832;13.816;2023-12-20T12:49:52;100242.19;;;21.31;49.16
17254;BME280;32542;52.832;13.816;2023-12-20T12:52:57;100247.50;;;21.31;49.22
17254;BME280;32542;52.832;13.816;2023-12-20T12:56:00;100257.19;;;21.32;49.13
17254;BME280;32542;52.832;13.816;2023-12-20T12:59:03;100248.38;;;21.31;49.12
17254;BME280;32542;52.832;13.816;2023-12-20T13:02:07;100239.53;;;21.31;49.10
17254;BME280;32542;52.832;13.816;2023-12-20T13:05:10;100215.56;;;21.31;48.88
17254;BME280;32542;52.832;13.816;2023-12-20T13:08:15;100249.22;;;21.32;49.18
17254;BME280;32542;52.832;13.816;2023-12-20T13:11:17;100247.41;;;21.32;50.82
17254;BME280;32542;52.832;13.816;2023-12-20T13:14:20;100261.50;;;21.34;53.12
17254;BME280;32542;52.832;13.816;2023-12-20T13:17:23;100252.56;;;21.35;51.81
17254;BME280;32542;52.832;13.816;2023-12-20T13:20:27;100266.72;;;21.36;50.83
17254;BME280;32542;52.832;13.816;2023-12-20T13:23:31;100266.72;;;21.36;50.32
17254;BME280;32542;52.832;13.816;2023-12-20T13:26:36;100272.03;;;21.36;50.11
17254;BME280;32542;52.832;13.816;2023-12-20T13:29:39;100279.28;;;21.34;50.03
17254;BME280;32542;52.832;13.816;2023-12-20T13:32:42;100279.28;;;21.34;49.96
17254;BME280;32542;52.832;13.816;2023-12-20T13:35:46;100282.91;;;21.33;49.96
17254;BME280;32542;52.832;13.816;2023-12-20T13:38:50;100279.38;;;21.32;49.94
17254;BME280;32542;52.832;13.816;2023-12-20T13:41:53;100281.16;;;21.32;50.17
17254;BME280;32542;52.832;13.816;2023-12-20T13:44:59;100259.84;;;21.32;50.04
17254;BME280;32542;52.832;13.816;2023-12-20T13:48:02;100275.00;;;21.31;50.16
17254;BME280;32542;52.832;13.816;2023-12-20T13:51:06;100265.19;;;21.32;50.13
17254;BME280;32542;52.832;13.816;2023-12-20T13:54:10;100282.91;;;21.33;50.19
17254;BME280;32542;52.832;13.816;2023-12-20T13:57:13;100275.84;;;21.32;50.29
17254;BME280;32542;52.832;13.816;2023-12-20T14:00:32;100283.75;;;21.33;50.29
17254;BME280;32542;52.832;13.816;2023-12-20T14:03:35;100281.16;;;21.32;50.45
17254;BME280;32542;52.832;13.816;2023-12-20T14:06:37;100286.50;;;21.32;50.50
17254;BME280;32542;52.832;13.816;2023-12-20T14:09:42;100294.47;;;21.32;50.53
17254;BME280;32542;52.832;13.816;2023-12-20T14:12:48;100286.50;;;21.32;50.54
17254;BME280;32542;52.832;13.816;2023-12-20T14:15:51;100292.78;;;21.31;50.50
17254;BME280;32542;52.832;13.816;2023-12-20T14:18:55;100295.44;;;21.31;50.54
17254;BME280;32542;52.832;13.816;2023-12-20T14:21:59;100300.78;;;21.31;50.53
17254;BME280;32542;52.832;13.816;2023-12-20T14:25:05;100308.75;;;21.31;50.37
17254;BME280;32542;52.832;13.816;2023-12-20T14:28:09;100302.56;;;21.30;50.51
17254;BME280;32542;52.832;13.816;2023-12-20T14:31:15;100308.75;;;21.31;50.49
17254;BME280;32542;52.832;13.816;2023-12-20T14:34:18;100303.44;;;21.31;50.55
17254;BME280;32542;52.832;13.816;2023-12-20T14:37:21;100311.41;;;21.31;50.47
17254;BME280;32542;52.832;13.816;2023-12-20T14:40:25;100316.75;;;21.31;50.55
17254;BME280;32542;52.832;13.816;2023-12-20T14:43:29;100314.09;;;21.31;50.55
17254;BME280;32542;52.832;13.816;2023-12-20T14:46:32;100323.97;;;21.29;50.43
17254;BME280;32542;52.832;13.816;2023-12-20T14:49:35;100333.66;;;21.30;50.45
17254;BME280;32542;52.832;13.816;2023-12-20T14:52:39;100324.81;;;21.29;50.47
17254;BME280;32542;52.832;13.816;2023-12-20T14:55:43;100322.13;;;21.29;50.36
17254;BME280;32542;52.832;13.816;2023-12-20T14:58:46;100343.44;;;21.29;50.39
17254;BME280;32542;52.832;13.816;2023-12-20T15:01:49;100338.13;;;21.29;50.39
17254;BME280;32542;52.832;13.816;2023-12-20T15:04:53;100346.09;;;21.29;50.27
17254;BME280;32542;52.832;13.816;2023-12-20T15:07:56;100350.50;;;21.30;50.27
17254;BME280;32542;52.832;13.816;2023-12-20T15:11:00;100356.69;;;21.31;50.24
17254;BME280;32542;52.832;13.816;2023-12-20T15:14:04;100361.16;;;21.30;50.25
17254;BME280;32542;52.832;13.816;2023-12-20T15:17:08;100367.34;;;21.31;50.16
17254;BME280;32542;52.832;13.816;2023-12-20T15:20:11;100369.16;;;21.30;50.13
17254;BME280;32542;52.832;13.816;2023-12-20T15:23:15;100368.28;;;21.30;50.24
17254;BME280;32542;52.832;13.816;2023-12-20T15:26:19;100373.59;;;21.30;50.17
17254;BME280;32542;52.832;13.816;2023-12-20T15:29:22;100378.06;;;21.29;50.03
17254;BME280;32542;52.832;13.816;2023-12-20T15:32:25;100382.56;;;21.29;50.01
17254;BME280;32542;52.832;13.816;2023-12-20T15:35:28;100394.03;;;21.29;50.05
17254;BME280;32542;52.832;13.816;2023-12-20T15:38:32;100388.72;;;21.29;49.96
17254;BME280;32542;52.832;13.816;2023-12-20T15:41:37;100387.88;;;21.29;50.04
17254;BME280;32542;52.832;13.816;2023-12-20T15:44:40;100398.53;;;21.29;49.99
17254;BME280;32542;52.832;13.816;2023-12-20T15:47:43;100400.25;;;21.30;49.96